sensor_id;sensor_type;location;lat;lon;timestamp;P1;durP1;ratioP1;P2;durP2;ratioP2
31694;SDS011;18289;51.330;4.946;2022-12-29T00:01:51;2.13;;;1.90;;
31694;SDS011;18289;51.330;4.946;2022-12-29T00:04:17;4.75;;;1.63;;
31694;SDS011;18289;51.330;4.946;2022-12-29T00:06:43;3.08;;;2.20;;
31694;SDS011;18289;51.330;4.946;2022-12-29T00:09:12;1.80;;;1.70;;
31694;SDS011;18289;51.330;4.946;2022-12-29T00:11:38;2.17;;;1.98;;
31694;SDS011;18289;51.330;4.946;2022-12-29T00:14:04;4.00;;;2.28;;
31694;SDS011;18289;51.330;4.946;2022-12-29T00:16:48;2.30;;;2.10;;
31694;SDS011;18289;51.330;4.946;2022-12-29T00:19:14;2.15;;;2.05;;
31694;SDS011;18289;51.330;4.946;2022-12-29T00:21:58;3.33;;;2.25;;
31694;SDS011;18289;51.330;4.946;2022-12-29T00:24:43;3.00;;;2.80;;
31694;SDS011;18289;51.330;4.946;2022-12-29T00:27:18;2.83;;;2.40;;
31694;SDS011;18289;51.330;4.946;2022-12-29T00:30:04;2.97;;;2.72;;
31694;SDS011;18289;51.330;4.946;2022-12-29T00:35:43;3.10;;;2.80;;
31694;SDS011;18289;51.330;4.946;2022-12-29T00:38:17;3.47;;;3.17;;
31694;SDS011;18289;51.330;4.946;2022-12-29T00:41:01;5.03;;;2.72;;
31694;SDS011;18289;51.330;4.946;2022-12-29T00:43:45;3.65;;;3.05;;
31694;SDS011;18289;51.330;4.946;2022-12-29T00:46:35;3.65;;;3.42;;
31694;SDS011;18289;51.330;4.946;2022-12-29T00:49:02;3.53;;;3.22;;
31694;SDS011;18289;51.330;4.946;2022-12-29T00:51:47;3.40;;;2.70;;
31694;SDS011;18289;51.330;4.946;2022-12-29T00:54:13;3.40;;;3.03;;
31694;SDS011;18289;51.330;4.946;2022-12-29T00:56:39;3.60;;;2.95;;
31694;SDS011;18289;51.330;4.946;2022-12-29T00:59:06;3.00;;;2.75;;
31694;SDS011;18289;51.330;4.946;2022-12-29T01:01:34;3.13;;;2.92;;
31694;SDS011;18289;51.330;4.946;2022-12-29T01:04:00;3.58;;;2.83;;
31694;SDS011;18289;51.330;4.946;2022-12-29T01:06:26;4.13;;;2.47;;
31694;SDS011;18289;51.330;4.946;2022-12-29T01:08:55;2.05;;;1.95;;
31694;SDS011;18289;51.330;4.946;2022-12-29T01:11:39;3.28;;;2.05;;
31694;SDS011;18289;51.330;4.946;2022-12-29T01:14:05;2.65;;;2.45;;
31694;SDS011;18289;51.330;4.946;2022-12-29T01:16:31;3.22;;;2.10;;
31694;SDS011;18289;51.330;4.946;2022-12-29T01:18:57;2.20;;;2.00;;
31694;SDS011;18289;51.330;4.946;2022-12-29T01:21:23;2.95;;;2.13;;
31694;SDS011;18289;51.330;4.946;2022-12-29T01:23:49;2.60;;;1.77;;
31694;SDS011;18289;51.330;4.946;2022-12-29T01:26:15;2.45;;;1.98;;
31694;SDS011;18289;51.330;4.946;2022-12-29T01:28:42;2.45;;;2.00;;
31694;SDS011;18289;51.330;4.946;2022-12-29T01:31:09;4.00;;;1.83;;
31694;SDS011;18289;51.330;4.946;2022-12-29T01:33:36;3.28;;;1.60;;
31694;SDS011;18289;51.330;4.946;2022-12-29T01:36:02;3.10;;;1.90;;
31694;SDS011;18289;51.330;4.946;2022-12-29T01:38:29;3.08;;;1.70;;
31694;SDS011;18289;51.330;4.946;2022-12-29T01:40:59;2.13;;;1.95;;
31694;SDS011;18289;51.330;4.946;2022-12-29T01:46:21;1.92;;;1.58;;
31694;SDS011;18289;51.330;4.946;2022-12-29T01:51:27;3.60;;;1.75;;
31694;SDS011;18289;51.330;4.946;2022-12-29T01:53:54;1.95;;;1.85;;
31694;SDS011;18289;51.330;4.946;2022-12-29T01:56:23;4.57;;;1.90;;
31694;SDS011;18289;51.330;4.946;2022-12-29T01:58:57;4.00;;;1.85;;
31694;SDS011;18289;51.330;4.946;2022-12-29T02:01:28;2.63;;;1.58;;
31694;SDS011;18289;51.330;4.946;2022-12-29T02:03:54;4.55;;;1.73;;
31694;SDS011;18289;51.330;4.946;2022-12-29T02:06:21;4.38;;;1.85;;
31694;SDS011;18289;51.330;4.946;2022-12-29T02:09:00;2.50;;;1.90;;
31694;SDS011;18289;51.330;4.946;2022-12-29T02:11:26;2.90;;;1.65;;
31694;SDS011;18289;51.330;4.946;2022-12-29T02:13:56;3.03;;;1.75;;
31694;SDS011;18289;51.330;4.946;2022-12-29T02:16:44;3.60;;;1.85;;
31694;SDS011;18289;51.330;4.946;2022-12-29T02:30:29;5.03;;;1.65;;
31694;SDS011;18289;51.330;4.946;2022-12-29T02:33:01;2.72;;;1.67;;
31694;SDS011;18289;51.330;4.946;2022-12-29T02:43:54;4.10;;;1.50;;
31694;SDS011;18289;51.330;4.946;2022-12-29T02:49:04;3.03;;;1.75;;
31694;SDS011;18289;51.330;4.946;2022-12-29T02:54:07;3.00;;;1.70;;
31694;SDS011;18289;51.330;4.946;2022-12-29T02:56:51;2.15;;;1.80;;
31694;SDS011;18289;51.330;4.946;2022-12-29T02:59:18;1.88;;;1.63;;
31694;SDS011;18289;51.330;4.946;2022-12-29T03:02:06;2.13;;;1.60;;
31694;SDS011;18289;51.330;4.946;2022-12-29T03:08:28;2.20;;;1.40;;
31694;SDS011;18289;51.330;4.946;2022-12-29T03:10:35;1.70;;;1.60;;
31694;SDS011;18289;51.330;4.946;2022-12-29T03:16:07;2.92;;;1.70;;
31694;SDS011;18289;51.330;4.946;2022-12-29T03:19:04;5.65;;;1.60;;
31694;SDS011;18289;51.330;4.946;2022-12-29T03:21:54;3.17;;;1.73;;
31694;SDS011;18289;51.330;4.946;2022-12-29T03:24:47;1.95;;;1.63;;
31694;SDS011;18289;51.330;4.946;2022-12-29T03:27:21;3.03;;;1.42;;
31694;SDS011;18289;51.330;4.946;2022-12-29T03:29:51;2.85;;;1.50;;
31694;SDS011;18289;51.330;4.946;2022-12-29T03:32:22;4.68;;;2.03;;
31694;SDS011;18289;51.330;4.946;2022-12-29T03:34:50;5.20;;;1.67;;
31694;SDS011;18289;51.330;4.946;2022-12-29T03:37:18;3.08;;;1.92;;
31694;SDS011;18289;51.330;4.946;2022-12-29T03:39:48;2.80;;;1.75;;
31694;SDS011;18289;51.330;4.946;2022-12-29T03:42:15;4.55;;;1.70;;
31694;SDS011;18289;51.330;4.946;2022-12-29T03:44:45;4.75;;;2.13;;
31694;SDS011;18289;51.330;4.946;2022-12-29T03:47:12;2.35;;;1.60;;
31694;SDS011;18289;51.330;4.946;2022-12-29T03:49:39;1.83;;;1.65;;
31694;SDS011;18289;51.330;4.946;2022-12-29T03:52:05;5.28;;;1.90;;
31694;SDS011;18289;51.330;4.946;2022-12-29T03:54:31;3.95;;;2.05;;
31694;SDS011;18289;51.330;4.946;2022-12-29T03:56:57;5.45;;;1.90;;
31694;SDS011;18289;51.330;4.946;2022-12-29T03:59:23;10.13;;;2.00;;
31694;SDS011;18289;51.330;4.946;2022-12-29T04:01:50;5.30;;;1.55;;
31694;SDS011;18289;51.330;4.946;2022-12-29T04:04:16;6.00;;;1.42;;
31694;SDS011;18289;51.330;4.946;2022-12-29T04:06:42;8.00;;;2.40;;
31694;SDS011;18289;51.330;4.946;2022-12-29T04:09:09;3.38;;;1.85;;
31694;SDS011;18289;51.330;4.946;2022-12-29T04:11:35;4.38;;;1.83;;
31694;SDS011;18289;51.330;4.946;2022-12-29T04:14:00;4.38;;;1.90;;
31694;SDS011;18289;51.330;4.946;2022-12-29T04:16:26;8.20;;;2.45;;
31694;SDS011;18289;51.330;4.946;2022-12-29T04:18:52;6.10;;;1.63;;
31694;SDS011;18289;51.330;4.946;2022-12-29T04:21:17;5.22;;;1.88;;
31694;SDS011;18289;51.330;4.946;2022-12-29T04:23:43;4.47;;;1.77;;
31694;SDS011;18289;51.330;4.946;2022-12-29T04:26:09;6.47;;;1.80;;
31694;SDS011;18289;51.330;4.946;2022-12-29T04:28:35;9.18;;;2.50;;
31694;SDS011;18289;51.330;4.946;2022-12-29T04:31:01;6.07;;;1.98;;
31694;SDS011;18289;51.330;4.946;2022-12-29T04:33:28;7.43;;;1.77;;
31694;SDS011;18289;51.330;4.946;2022-12-29T04:35:53;6.47;;;2.05;;
31694;SDS011;18289;51.330;4.946;2022-12-29T04:38:19;3.30;;;1.77;;
31694;SDS011;18289;51.330;4.946;2022-12-29T04:40:46;5.15;;;2.10;;
31694;SDS011;18289;51.330;4.946;2022-12-29T04:43:12;8.25;;;2.10;;
31694;SDS011;18289;51.330;4.946;2022-12-29T04:45:39;7.13;;;2.28;;
31694;SDS011;18289;51.330;4.946;2022-12-29T04:48:08;4.68;;;1.70;;
31694;SDS011;18289;51.330;4.946;2022-12-29T04:50:34;7.22;;;1.85;;
31694;SDS011;18289;51.330;4.946;2022-12-29T04:52:59;6.22;;;2.35;;
31694;SDS011;18289;51.330;4.946;2022-12-29T04:55:25;6.25;;;1.80;;
31694;SDS011;18289;51.330;4.946;2022-12-29T04:57:51;3.03;;;1.85;;
31694;SDS011;18289;51.330;4.946;2022-12-29T05:00:17;6.78;;;1.88;;
31694;SDS011;18289;51.330;4.946;2022-12-29T05:02:43;4.35;;;2.03;;
31694;SDS011;18289;51.330;4.946;2022-12-29T05:05:09;6.53;;;1.83;;
31694;SDS011;18289;51.330;4.946;2022-12-29T05:07:35;3.90;;;1.50;;
31694;SDS011;18289;51.330;4.946;2022-12-29T05:10:00;5.50;;;2.17;;
31694;SDS011;18289;51.330;4.946;2022-12-29T05:12:29;4.03;;;1.77;;
31694;SDS011;18289;51.330;4.946;2022-12-29T05:14:55;4.40;;;2.03;;
31694;SDS011;18289;51.330;4.946;2022-12-29T05:17:21;4.40;;;2.00;;
31694;SDS011;18289;51.330;4.946;2022-12-29T05:19:47;5.05;;;1.70;;
31694;SDS011;18289;51.330;4.946;2022-12-29T05:22:12;3.40;;;1.75;;
31694;SDS011;18289;51.330;4.946;2022-12-29T05:24:39;2.72;;;1.77;;
31694;SDS011;18289;51.330;4.946;2022-12-29T05:27:05;6.43;;;2.05;;
31694;SDS011;18289;51.330;4.946;2022-12-29T05:29:30;4.13;;;1.85;;
31694;SDS011;18289;51.330;4.946;2022-12-29T05:31:56;3.33;;;2.13;;
31694;SDS011;18289;51.330;4.946;2022-12-29T05:34:22;3.30;;;1.63;;
31694;SDS011;18289;51.330;4.946;2022-12-29T05:36:48;6.03;;;2.30;;
31694;SDS011;18289;51.330;4.946;2022-12-29T05:39:13;3.25;;;1.60;;
31694;SDS011;18289;51.330;4.946;2022-12-29T05:41:39;2.63;;;1.52;;
31694;SDS011;18289;51.330;4.946;2022-12-29T05:44:05;4.40;;;1.60;;
31694;SDS011;18289;51.330;4.946;2022-12-29T05:46:31;2.42;;;1.60;;
31694;SDS011;18289;51.330;4.946;2022-12-29T05:48:56;3.70;;;1.75;;
31694;SDS011;18289;51.330;4.946;2022-12-29T05:51:22;4.53;;;2.03;;
31694;SDS011;18289;51.330;4.946;2022-12-29T05:53:48;4.43;;;1.70;;
31694;SDS011;18289;51.330;4.946;2022-12-29T05:56:14;6.13;;;2.00;;
31694;SDS011;18289;51.330;4.946;2022-12-29T05:58:40;5.20;;;2.42;;
31694;SDS011;18289;51.330;4.946;2022-12-29T06:01:06;5.40;;;2.05;;
31694;SDS011;18289;51.330;4.946;2022-12-29T06:03:32;4.90;;;1.88;;
31694;SDS011;18289;51.330;4.946;2022-12-29T06:05:57;4.20;;;2.15;;
31694;SDS011;18289;51.330;4.946;2022-12-29T06:08:23;3.20;;;2.05;;
31694;SDS011;18289;51.330;4.946;2022-12-29T06:10:49;4.05;;;1.33;;
31694;SDS011;18289;51.330;4.946;2022-12-29T06:13:15;3.65;;;1.52;;
31694;SDS011;18289;51.330;4.946;2022-12-29T06:15:41;5.97;;;2.05;;
31694;SDS011;18289;51.330;4.946;2022-12-29T06:18:06;7.25;;;1.88;;
31694;SDS011;18289;51.330;4.946;2022-12-29T06:20:32;7.65;;;1.75;;
31694;SDS011;18289;51.330;4.946;2022-12-29T06:22:58;7.15;;;2.08;;
31694;SDS011;18289;51.330;4.946;2022-12-29T06:25:24;3.03;;;2.00;;
31694;SDS011;18289;51.330;4.946;2022-12-29T06:27:50;6.68;;;2.30;;
31694;SDS011;18289;51.330;4.946;2022-12-29T06:30:15;5.00;;;1.85;;
31694;SDS011;18289;51.330;4.946;2022-12-29T06:32:42;4.97;;;1.80;;
31694;SDS011;18289;51.330;4.946;2022-12-29T06:35:08;4.20;;;1.70;;
31694;SDS011;18289;51.330;4.946;2022-12-29T06:37:33;7.93;;;1.85;;
31694;SDS011;18289;51.330;4.946;2022-12-29T06:39:59;4.43;;;2.15;;
31694;SDS011;18289;51.330;4.946;2022-12-29T06:42:25;6.13;;;2.05;;
31694;SDS011;18289;51.330;4.946;2022-12-29T06:44:51;12.80;;;2.15;;
31694;SDS011;18289;51.330;4.946;2022-12-29T06:47:17;7.85;;;2.25;;
31694;SDS011;18289;51.330;4.946;2022-12-29T06:49:43;7.03;;;2.13;;
31694;SDS011;18289;51.330;4.946;2022-12-29T06:52:09;5.53;;;2.50;;
31694;SDS011;18289;51.330;4.946;2022-12-29T06:54:35;7.57;;;2.17;;
31694;SDS011;18289;51.330;4.946;2022-12-29T06:57:01;8.80;;;2.47;;
31694;SDS011;18289;51.330;4.946;2022-12-29T06:59:26;4.38;;;2.55;;
31694;SDS011;18289;51.330;4.946;2022-12-29T07:01:52;4.72;;;2.22;;
31694;SDS011;18289;51.330;4.946;2022-12-29T07:04:18;3.33;;;2.05;;
31694;SDS011;18289;51.330;4.946;2022-12-29T07:06:43;8.23;;;2.22;;
31694;SDS011;18289;51.330;4.946;2022-12-29T07:09:09;8.77;;;2.00;;
31694;SDS011;18289;51.330;4.946;2022-12-29T07:11:35;11.88;;;2.13;;
31694;SDS011;18289;51.330;4.946;2022-12-29T07:14:01;9.98;;;2.30;;
31694;SDS011;18289;51.330;4.946;2022-12-29T07:16:27;6.30;;;2.35;;
31694;SDS011;18289;51.330;4.946;2022-12-29T07:18:55;5.68;;;2.33;;
31694;SDS011;18289;51.330;4.946;2022-12-29T07:21:22;5.15;;;2.20;;
31694;SDS011;18289;51.330;4.946;2022-12-29T07:23:48;7.28;;;2.60;;
31694;SDS011;18289;51.330;4.946;2022-12-29T07:26:14;8.20;;;2.67;;
31694;SDS011;18289;51.330;4.946;2022-12-29T07:28:42;9.27;;;2.80;;
31694;SDS011;18289;51.330;4.946;2022-12-29T07:31:15;8.23;;;2.95;;
31694;SDS011;18289;51.330;4.946;2022-12-29T07:33:43;9.40;;;2.67;;
31694;SDS011;18289;51.330;4.946;2022-12-29T07:36:10;6.25;;;2.15;;
31694;SDS011;18289;51.330;4.946;2022-12-29T07:38:36;8.60;;;2.50;;
31694;SDS011;18289;51.330;4.946;2022-12-29T07:41:02;8.80;;;2.65;;
31694;SDS011;18289;51.330;4.946;2022-12-29T07:43:28;6.28;;;2.17;;
31694;SDS011;18289;51.330;4.946;2022-12-29T07:45:53;9.18;;;2.35;;
31694;SDS011;18289;51.330;4.946;2022-12-29T07:48:19;10.88;;;2.83;;
31694;SDS011;18289;51.330;4.946;2022-12-29T07:50:45;5.72;;;2.00;;
31694;SDS011;18289;51.330;4.946;2022-12-29T07:53:11;9.27;;;3.25;;
31694;SDS011;18289;51.330;4.946;2022-12-29T07:55:36;7.07;;;2.63;;
31694;SDS011;18289;51.330;4.946;2022-12-29T07:58:02;11.65;;;2.38;;
31694;SDS011;18289;51.330;4.946;2022-12-29T08:00:28;8.05;;;2.40;;
31694;SDS011;18289;51.330;4.946;2022-12-29T08:02:54;8.80;;;2.75;;
31694;SDS011;18289;51.330;4.946;2022-12-29T08:05:19;4.57;;;2.10;;
31694;SDS011;18289;51.330;4.946;2022-12-29T08:07:46;7.43;;;2.50;;
31694;SDS011;18289;51.330;4.946;2022-12-29T08:10:12;10.20;;;3.17;;
31694;SDS011;18289;51.330;4.946;2022-12-29T08:12:39;12.07;;;2.70;;
31694;SDS011;18289;51.330;4.946;2022-12-29T08:15:05;5.70;;;2.33;;
31694;SDS011;18289;51.330;4.946;2022-12-29T08:17:32;9.23;;;2.70;;
31694;SDS011;18289;51.330;4.946;2022-12-29T08:19:58;10.95;;;2.90;;
31694;SDS011;18289;51.330;4.946;2022-12-29T08:22:24;9.52;;;3.15;;
31694;SDS011;18289;51.330;4.946;2022-12-29T08:24:50;8.90;;;2.28;;
31694;SDS011;18289;51.330;4.946;2022-12-29T08:27:16;5.82;;;2.30;;
31694;SDS011;18289;51.330;4.946;2022-12-29T08:29:42;9.40;;;3.25;;
31694;SDS011;18289;51.330;4.946;2022-12-29T08:32:07;10.73;;;2.22;;
31694;SDS011;18289;51.330;4.946;2022-12-29T08:34:33;8.15;;;2.30;;
31694;SDS011;18289;51.330;4.946;2022-12-29T08:36:59;9.18;;;2.05;;
31694;SDS011;18289;51.330;4.946;2022-12-29T08:39:24;7.03;;;2.00;;
31694;SDS011;18289;51.330;4.946;2022-12-29T08:41:50;6.88;;;2.20;;
31694;SDS011;18289;51.330;4.946;2022-12-29T08:44:16;7.32;;;2.17;;
31694;SDS011;18289;51.330;4.946;2022-12-29T08:46:42;8.23;;;2.45;;
31694;SDS011;18289;51.330;4.946;2022-12-29T08:49:07;9.25;;;2.05;;
31694;SDS011;18289;51.330;4.946;2022-12-29T08:51:33;7.72;;;3.03;;
31694;SDS011;18289;51.330;4.946;2022-12-29T08:53:59;11.90;;;3.13;;
31694;SDS011;18289;51.330;4.946;2022-12-29T08:56:25;8.20;;;2.15;;
31694;SDS011;18289;51.330;4.946;2022-12-29T08:58:51;8.63;;;2.63;;
31694;SDS011;18289;51.330;4.946;2022-12-29T09:01:17;9.73;;;2.53;;
31694;SDS011;18289;51.330;4.946;2022-12-29T09:03:43;8.90;;;2.30;;
31694;SDS011;18289;51.330;4.946;2022-12-29T09:06:09;6.90;;;2.35;;
31694;SDS011;18289;51.330;4.946;2022-12-29T09:08:34;8.13;;;2.33;;
31694;SDS011;18289;51.330;4.946;2022-12-29T09:11:12;9.15;;;2.17;;
31694;SDS011;18289;51.330;4.946;2022-12-29T09:13:42;9.55;;;2.50;;
31694;SDS011;18289;51.330;4.946;2022-12-29T09:16:08;10.40;;;2.45;;
31694;SDS011;18289;51.330;4.946;2022-12-29T09:18:35;8.85;;;2.25;;
31694;SDS011;18289;51.330;4.946;2022-12-29T09:21:01;9.82;;;2.88;;
31694;SDS011;18289;51.330;4.946;2022-12-29T09:23:28;10.63;;;2.40;;
31694;SDS011;18289;51.330;4.946;2022-12-29T09:25:54;6.63;;;1.98;;
31694;SDS011;18289;51.330;4.946;2022-12-29T09:28:20;8.52;;;2.53;;
31694;SDS011;18289;51.330;4.946;2022-12-29T09:30:52;7.57;;;3.77;;
31694;SDS011;18289;51.330;4.946;2022-12-29T09:33:17;5.80;;;2.22;;
31694;SDS011;18289;51.330;4.946;2022-12-29T09:35:44;10.60;;;3.67;;
31694;SDS011;18289;51.330;4.946;2022-12-29T09:38:10;10.27;;;2.78;;
31694;SDS011;18289;51.330;4.946;2022-12-29T09:40:36;9.38;;;2.70;;
31694;SDS011;18289;51.330;4.946;2022-12-29T09:48:34;10.13;;;3.15;;
31694;SDS011;18289;51.330;4.946;2022-12-29T09:51:03;14.40;;;2.55;;
31694;SDS011;18289;51.330;4.946;2022-12-29T09:53:38;6.72;;;2.58;;
31694;SDS011;18289;51.330;4.946;2022-12-29T09:56:15;14.30;;;2.50;;
31694;SDS011;18289;51.330;4.946;2022-12-29T10:01:44;7.38;;;2.38;;
31694;SDS011;18289;51.330;4.946;2022-12-29T10:04:16;8.13;;;2.20;;
31694;SDS011;18289;51.330;4.946;2022-12-29T10:06:51;8.52;;;2.72;;
31694;SDS011;18289;51.330;4.946;2022-12-29T10:16:55;9.75;;;2.40;;
31694;SDS011;18289;51.330;4.946;2022-12-29T10:19:45;7.95;;;2.70;;
31694;SDS011;18289;51.330;4.946;2022-12-29T10:25:02;11.82;;;2.40;;
31694;SDS011;18289;51.330;4.946;2022-12-29T10:27:37;8.77;;;2.97;;
31694;SDS011;18289;51.330;4.946;2022-12-29T10:30:03;9.93;;;2.58;;
31694;SDS011;18289;51.330;4.946;2022-12-29T10:32:31;12.45;;;2.75;;
31694;SDS011;18289;51.330;4.946;2022-12-29T10:35:28;6.82;;;2.03;;
31694;SDS011;18289;51.330;4.946;2022-12-29T10:40:40;9.82;;;2.58;;
31694;SDS011;18289;51.330;4.946;2022-12-29T10:43:24;9.40;;;3.42;;
31694;SDS011;18289;51.330;4.946;2022-12-29T10:45:52;13.55;;;2.90;;
31694;SDS011;18289;51.330;4.946;2022-12-29T10:48:23;8.93;;;2.88;;
31694;SDS011;18289;51.330;4.946;2022-12-29T10:50:53;7.95;;;2.42;;
31694;SDS011;18289;51.330;4.946;2022-12-29T10:55:50;7.22;;;2.65;;
31694;SDS011;18289;51.330;4.946;2022-12-29T10:58:20;18.15;;;3.72;;
31694;SDS011;18289;51.330;4.946;2022-12-29T11:00:49;11.77;;;2.88;;
31694;SDS011;18289;51.330;4.946;2022-12-29T11:08:24;11.27;;;2.63;;
31694;SDS011;18289;51.330;4.946;2022-12-29T11:13:26;7.97;;;3.10;;
31694;SDS011;18289;51.330;4.946;2022-12-29T11:15:53;9.98;;;3.55;;
31694;SDS011;18289;51.330;4.946;2022-12-29T11:20:51;9.73;;;2.72;;
31694;SDS011;18289;51.330;4.946;2022-12-29T11:26:13;6.35;;;2.72;;
31694;SDS011;18289;51.330;4.946;2022-12-29T11:28:40;10.90;;;3.05;;
31694;SDS011;18289;51.330;4.946;2022-12-29T11:31:12;11.57;;;2.85;;
31694;SDS011;18289;51.330;4.946;2022-12-29T11:33:41;10.60;;;2.85;;
31694;SDS011;18289;51.330;4.946;2022-12-29T11:36:17;9.73;;;2.55;;
31694;SDS011;18289;51.330;4.946;2022-12-29T11:38:53;8.13;;;2.70;;
31694;SDS011;18289;51.330;4.946;2022-12-29T11:41:24;8.82;;;3.13;;
31694;SDS011;18289;51.330;4.946;2022-12-29T11:43:52;8.77;;;2.35;;
31694;SDS011;18289;51.330;4.946;2022-12-29T11:46:24;6.05;;;2.35;;
31694;SDS011;18289;51.330;4.946;2022-12-29T11:48:56;10.30;;;2.72;;
31694;SDS011;18289;51.330;4.946;2022-12-29T11:51:45;8.52;;;2.53;;
31694;SDS011;18289;51.330;4.946;2022-12-29T11:54:33;14.10;;;3.20;;
31694;SDS011;18289;51.330;4.946;2022-12-29T11:57:08;8.20;;;2.63;;
31694;SDS011;18289;51.330;4.946;2022-12-29T11:59:39;9.35;;;3.53;;
31694;SDS011;18289;51.330;4.946;2022-12-29T12:02:11;8.48;;;1.98;;
31694;SDS011;18289;51.330;4.946;2022-12-29T12:04:57;7.10;;;2.25;;
31694;SDS011;18289;51.330;4.946;2022-12-29T12:07:43;7.55;;;2.80;;
31694;SDS011;18289;51.330;4.946;2022-12-29T12:10:22;7.88;;;3.22;;
31694;SDS011;18289;51.330;4.946;2022-12-29T12:13:02;7.25;;;2.40;;
31694;SDS011;18289;51.330;4.946;2022-12-29T12:16:22;7.07;;;2.13;;
31694;SDS011;18289;51.330;4.946;2022-12-29T12:26:37;8.98;;;2.38;;
31694;SDS011;18289;51.330;4.946;2022-12-29T12:29:16;9.82;;;2.70;;
31694;SDS011;18289;51.330;4.946;2022-12-29T12:31:57;7.90;;;2.55;;
31694;SDS011;18289;51.330;4.946;2022-12-29T12:34:31;7.10;;;3.42;;
31694;SDS011;18289;51.330;4.946;2022-12-29T12:51:43;10.85;;;3.33;;
31694;SDS011;18289;51.330;4.946;2022-12-29T12:57:03;9.65;;;3.05;;
31694;SDS011;18289;51.330;4.946;2022-12-29T13:00:07;11.48;;;3.33;;
31694;SDS011;18289;51.330;4.946;2022-12-29T13:05:41;11.88;;;4.00;;
31694;SDS011;18289;51.330;4.946;2022-12-29T13:11:24;11.40;;;3.03;;
31694;SDS011;18289;51.330;4.946;2022-12-29T13:14:00;8.43;;;2.58;;
31694;SDS011;18289;51.330;4.946;2022-12-29T13:19:13;10.90;;;2.47;;
31694;SDS011;18289;51.330;4.946;2022-12-29T13:41:18;12.52;;;3.75;;
31694;SDS011;18289;51.330;4.946;2022-12-29T13:44:09;13.50;;;4.38;;
31694;SDS011;18289;51.330;4.946;2022-12-29T13:46:45;8.55;;;4.20;;
31694;SDS011;18289;51.330;4.946;2022-12-29T13:51:46;6.15;;;3.42;;
31694;SDS011;18289;51.330;4.946;2022-12-29T13:54:29;14.45;;;3.15;;
31694;SDS011;18289;51.330;4.946;2022-12-29T14:02:46;12.73;;;3.20;;
31694;SDS011;18289;51.330;4.946;2022-12-29T14:05:34;9.68;;;3.78;;
31694;SDS011;18289;51.330;4.946;2022-12-29T14:08:04;14.88;;;3.13;;
31694;SDS011;18289;51.330;4.946;2022-12-29T14:10:38;13.75;;;4.25;;
31694;SDS011;18289;51.330;4.946;2022-12-29T14:13:13;11.68;;;3.17;;
31694;SDS011;18289;51.330;4.946;2022-12-29T14:15:45;8.18;;;2.47;;
31694;SDS011;18289;51.330;4.946;2022-12-29T14:18:19;13.18;;;3.10;;
31694;SDS011;18289;51.330;4.946;2022-12-29T14:20:52;11.23;;;3.10;;
31694;SDS011;18289;51.330;4.946;2022-12-29T14:23:39;7.78;;;3.00;;
31694;SDS011;18289;51.330;4.946;2022-12-29T14:28:40;9.75;;;3.15;;
31694;SDS011;18289;51.330;4.946;2022-12-29T14:34:15;6.68;;;2.70;;
31694;SDS011;18289;51.330;4.946;2022-12-29T14:36:37;11.00;;;2.80;;
31694;SDS011;18289;51.330;4.946;2022-12-29T14:39:03;7.32;;;2.28;;
31694;SDS011;18289;51.330;4.946;2022-12-29T14:41:58;9.20;;;2.75;;
31694;SDS011;18289;51.330;4.946;2022-12-29T14:44:25;9.48;;;2.50;;
31694;SDS011;18289;51.330;4.946;2022-12-29T14:49:22;7.28;;;2.35;;
31694;SDS011;18289;51.330;4.946;2022-12-29T14:51:51;7.53;;;2.00;;
31694;SDS011;18289;51.330;4.946;2022-12-29T14:54:41;2.85;;;2.15;;
31694;SDS011;18289;51.330;4.946;2022-12-29T14:57:15;6.15;;;2.20;;
31694;SDS011;18289;51.330;4.946;2022-12-29T14:59:57;7.15;;;1.95;;
31694;SDS011;18289;51.330;4.946;2022-12-29T15:02:31;4.65;;;1.77;;
31694;SDS011;18289;51.330;4.946;2022-12-29T15:05:03;3.60;;;1.75;;
31694;SDS011;18289;51.330;4.946;2022-12-29T15:07:31;6.05;;;1.92;;
31694;SDS011;18289;51.330;4.946;2022-12-29T15:10:11;3.80;;;1.80;;
31694;SDS011;18289;51.330;4.946;2022-12-29T15:12:45;6.38;;;2.03;;
31694;SDS011;18289;51.330;4.946;2022-12-29T15:17:44;4.13;;;1.92;;
31694;SDS011;18289;51.330;4.946;2022-12-29T15:22:43;7.30;;;1.92;;
31694;SDS011;18289;51.330;4.946;2022-12-29T15:25:28;5.13;;;1.98;;
31694;SDS011;18289;51.330;4.946;2022-12-29T15:27:57;6.30;;;2.00;;
31694;SDS011;18289;51.330;4.946;2022-12-29T15:30:26;5.68;;;2.40;;
31694;SDS011;18289;51.330;4.946;2022-12-29T15:32:52;8.70;;;1.73;;
31694;SDS011;18289;51.330;4.946;2022-12-29T15:37:49;5.78;;;1.98;;
31694;SDS011;18289;51.330;4.946;2022-12-29T15:40:33;2.78;;;1.60;;
31694;SDS011;18289;51.330;4.946;2022-12-29T15:45:43;3.45;;;1.65;;
31694;SDS011;18289;51.330;4.946;2022-12-29T15:48:17;4.75;;;1.70;;
31694;SDS011;18289;51.330;4.946;2022-12-29T15:50:44;4.93;;;2.42;;
31694;SDS011;18289;51.330;4.946;2022-12-29T15:53:12;3.63;;;1.70;;
31694;SDS011;18289;51.330;4.946;2022-12-29T15:55:44;6.38;;;2.10;;
31694;SDS011;18289;51.330;4.946;2022-12-29T15:58:20;5.30;;;2.50;;
31694;SDS011;18289;51.330;4.946;2022-12-29T16:00:48;2.95;;;2.03;;
31694;SDS011;18289;51.330;4.946;2022-12-29T16:03:18;6.63;;;1.90;;
31694;SDS011;18289;51.330;4.946;2022-12-29T16:05:52;5.13;;;2.10;;
31694;SDS011;18289;51.330;4.946;2022-12-29T16:08:36;6.80;;;1.98;;
31694;SDS011;18289;51.330;4.946;2022-12-29T16:14:19;5.05;;;1.80;;
31694;SDS011;18289;51.330;4.946;2022-12-29T16:16:50;5.90;;;2.10;;
31694;SDS011;18289;51.330;4.946;2022-12-29T16:19:21;8.98;;;2.08;;
31694;SDS011;18289;51.330;4.946;2022-12-29T16:21:57;4.93;;;2.25;;
31694;SDS011;18289;51.330;4.946;2022-12-29T16:24:25;8.57;;;2.38;;
31694;SDS011;18289;51.330;4.946;2022-12-29T16:27:07;6.25;;;2.20;;
31694;SDS011;18289;51.330;4.946;2022-12-29T16:29:45;8.35;;;2.55;;
31694;SDS011;18289;51.330;4.946;2022-12-29T16:32:46;7.68;;;2.25;;
31694;SDS011;18289;51.330;4.946;2022-12-29T16:35:20;7.75;;;2.47;;
31694;SDS011;18289;51.330;4.946;2022-12-29T16:37:48;6.78;;;2.15;;
31694;SDS011;18289;51.330;4.946;2022-12-29T16:40:37;11.00;;;3.00;;
31694;SDS011;18289;51.330;4.946;2022-12-29T16:43:03;5.57;;;2.80;;
31694;SDS011;18289;51.330;4.946;2022-12-29T16:50:30;8.75;;;3.10;;
31694;SDS011;18289;51.330;4.946;2022-12-29T16:52:57;6.88;;;2.45;;
31694;SDS011;18289;51.330;4.946;2022-12-29T16:55:24;10.38;;;2.63;;
31694;SDS011;18289;51.330;4.946;2022-12-29T16:57:50;6.72;;;2.22;;
31694;SDS011;18289;51.330;4.946;2022-12-29T17:00:20;9.98;;;3.08;;
31694;SDS011;18289;51.330;4.946;2022-12-29T17:02:51;12.85;;;2.72;;
31694;SDS011;18289;51.330;4.946;2022-12-29T17:05:22;12.70;;;2.92;;
31694;SDS011;18289;51.330;4.946;2022-12-29T17:07:48;8.32;;;2.47;;
31694;SDS011;18289;51.330;4.946;2022-12-29T17:10:16;12.40;;;2.80;;
31694;SDS011;18289;51.330;4.946;2022-12-29T17:12:42;7.35;;;3.00;;
31694;SDS011;18289;51.330;4.946;2022-12-29T17:15:26;7.80;;;2.70;;
31694;SDS011;18289;51.330;4.946;2022-12-29T17:17:59;12.70;;;3.05;;
31694;SDS011;18289;51.330;4.946;2022-12-29T17:20:26;11.95;;;3.35;;
31694;SDS011;18289;51.330;4.946;2022-12-29T17:22:53;10.82;;;2.92;;
31694;SDS011;18289;51.330;4.946;2022-12-29T17:25:20;10.65;;;3.78;;
31694;SDS011;18289;51.330;4.946;2022-12-29T17:30:38;9.30;;;3.30;;
31694;SDS011;18289;51.330;4.946;2022-12-29T17:33:05;8.23;;;3.03;;
31694;SDS011;18289;51.330;4.946;2022-12-29T17:35:35;9.10;;;2.95;;
31694;SDS011;18289;51.330;4.946;2022-12-29T17:38:01;7.68;;;3.33;;
31694;SDS011;18289;51.330;4.946;2022-12-29T17:40:27;18.70;;;3.08;;
31694;SDS011;18289;51.330;4.946;2022-12-29T17:42:57;11.20;;;2.92;;
31694;SDS011;18289;51.330;4.946;2022-12-29T17:45:25;10.93;;;3.10;;
31694;SDS011;18289;51.330;4.946;2022-12-29T17:47:54;13.07;;;3.30;;
31694;SDS011;18289;51.330;4.946;2022-12-29T17:50:24;9.95;;;3.22;;
31694;SDS011;18289;51.330;4.946;2022-12-29T17:52:52;6.82;;;2.53;;